sensor_id;sensor_type;location;lat;lon;timestamp;temperature;humidity
75130;HTU21D;63703;44.716;37.846;2022-10-26T00:00:47;13.52;76.34
75130;HTU21D;63703;44.716;37.846;2022-10-26T00:03:13;13.49;76.37
75130;HTU21D;63703;44.716;37.846;2022-10-26T00:05:39;13.47;76.42
75130;HTU21D;63703;44.716;37.846;2022-10-26T00:08:05;13.43;76.47
75130;HTU21D;63703;44.716;37.846;2022-10-26T00:10:33;13.43;76.54
75130;HTU21D;63703;44.716;37.846;2022-10-26T00:12:59;13.40;76.55
75130;HTU21D;63703;44.716;37.846;2022-10-26T00:15:27;13.39;76.64
75130;HTU21D;63703;44.716;37.846;2022-10-26T00:17:53;13.39;76.67
75130;HTU21D;63703;44.716;37.846;2022-10-26T00:20:19;13.40;76.72
75130;HTU21D;63703;44.716;37.846;2022-10-26T00:22:48;13.40;76.77
75130;HTU21D;63703;44.716;37.846;2022-10-26T00:25:14;13.41;76.89
75130;HTU21D;63703;44.716;37.846;2022-10-26T00:27:40;13.41;76.94
75130;HTU21D;63703;44.716;37.846;2022-10-26T00:30:06;13.40;77.03
75130;HTU21D;63703;44.716;37.846;2022-10-26T00:32:32;13.38;77.08
75130;HTU21D;63703;44.716;37.846;2022-10-26T00:34:59;13.41;77.21
75130;HTU21D;63703;44.716;37.846;2022-10-26T00:37:25;13.43;77.27
75130;HTU21D;63703;44.716;37.846;2022-10-26T00:39:51;13.46;77.34
75130;HTU21D;63703;44.716;37.846;2022-10-26T00:42:19;13.50;77.44
75130;HTU21D;63703;44.716;37.846;2022-10-26T00:47:15;13.55;77.50
75130;HTU21D;63703;44.716;37.846;2022-10-26T00:49:43;13.59;77.45
75130;HTU21D;63703;44.716;37.846;2022-10-26T00:52:11;13.59;77.45
75130;HTU21D;63703;44.716;37.846;2022-10-26T00:54:38;13.61;77.53
75130;HTU21D;63703;44.716;37.846;2022-10-26T00:57:05;13.64;77.57
75130;HTU21D;63703;44.716;37.846;2022-10-26T00:59:31;13.64;77.57
75130;HTU21D;63703;44.716;37.846;2022-10-26T01:01:57;13.65;77.60
75130;HTU21D;63703;44.716;37.846;2022-10-26T01:04:24;13.66;77.66
75130;HTU21D;63703;44.716;37.846;2022-10-26T01:06:51;13.69;77.72
75130;HTU21D;63703;44.716;37.846;2022-10-26T01:09:18;13.70;77.78
75130;HTU21D;63703;44.716;37.846;2022-10-26T01:11:45;13.73;77.85
75130;HTU21D;63703;44.716;37.846;2022-10-26T01:14:13;13.74;77.95
75130;HTU21D;63703;44.716;37.846;2022-10-26T01:20:11;13.78;78.26
75130;HTU21D;63703;44.716;37.846;2022-10-26T01:22:50;13.76;77.96
75130;HTU21D;63703;44.716;37.846;2022-10-26T01:25:32;13.75;78.14
75130;HTU21D;63703;44.716;37.846;2022-10-26T01:28:12;13.71;78.07
75130;HTU21D;63703;44.716;37.846;2022-10-26T01:30:44;13.74;78.11
75130;HTU21D;63703;44.716;37.846;2022-10-26T01:35:58;13.73;78.24
75130;HTU21D;63703;44.716;37.846;2022-10-26T01:41:05;13.68;78.14
75130;HTU21D;63703;44.716;37.846;2022-10-26T01:43:35;13.70;78.12
75130;HTU21D;63703;44.716;37.846;2022-10-26T01:46:05;13.73;78.10
75130;HTU21D;63703;44.716;37.846;2022-10-26T01:48:33;13.76;78.14
75130;HTU21D;63703;44.716;37.846;2022-10-26T01:51:01;13.75;78.12
75130;HTU21D;63703;44.716;37.846;2022-10-26T01:53:29;13.76;78.14
75130;HTU21D;63703;44.716;37.846;2022-10-26T01:55:56;13.78;78.18
75130;HTU21D;63703;44.716;37.846;2022-10-26T02:06:58;13.78;78.14
75130;HTU21D;63703;44.716;37.846;2022-10-26T02:09:53;13.82;78.32
75130;HTU21D;63703;44.716;37.846;2022-10-26T02:18:47;13.88;78.50
75130;HTU21D;63703;44.716;37.846;2022-10-26T02:21:19;13.93;78.12
75130;HTU21D;63703;44.716;37.846;2022-10-26T02:23:48;13.94;78.10
75130;HTU21D;63703;44.716;37.846;2022-10-26T02:26:19;13.99;78.11
75130;HTU21D;63703;44.716;37.846;2022-10-26T02:28:48;14.03;78.10
75130;HTU21D;63703;44.716;37.846;2022-10-26T02:31:16;14.09;78.04
75130;HTU21D;63703;44.716;37.846;2022-10-26T02:33:50;14.17;78.12
75130;HTU21D;63703;44.716;37.846;2022-10-26T02:36:25;14.21;77.98
75130;HTU21D;63703;44.716;37.846;2022-10-26T02:38:53;14.21;77.82
75130;HTU21D;63703;44.716;37.846;2022-10-26T02:41:21;14.24;77.84
75130;HTU21D;63703;44.716;37.846;2022-10-26T02:43:59;14.30;78.27
75130;HTU21D;63703;44.716;37.846;2022-10-26T02:46:28;14.39;77.90
75130;HTU21D;63703;44.716;37.846;2022-10-26T02:48:55;14.42;77.92
75130;HTU21D;63703;44.716;37.846;2022-10-26T02:51:33;14.47;77.96
75130;HTU21D;63703;44.716;37.846;2022-10-26T02:56:58;14.58;78.03
75130;HTU21D;63703;44.716;37.846;2022-10-26T02:59:29;14.60;77.79
75130;HTU21D;63703;44.716;37.846;2022-10-26T03:01:57;14.65;77.78
75130;HTU21D;63703;44.716;37.846;2022-10-26T03:04:30;14.68;77.89
75130;HTU21D;63703;44.716;37.846;2022-10-26T03:06:57;14.70;77.76
75130;HTU21D;63703;44.716;37.846;2022-10-26T03:09:23;14.73;77.82
75130;HTU21D;63703;44.716;37.846;2022-10-26T03:11:49;14.74;77.82
75130;HTU21D;63703;44.716;37.846;2022-10-26T03:14:15;14.79;77.85
75130;HTU21D;63703;44.716;37.846;2022-10-26T03:16:40;14.80;77.86
75130;HTU21D;63703;44.716;37.846;2022-10-26T03:19:06;14.83;77.88
75130;HTU21D;63703;44.716;37.846;2022-10-26T03:21:32;14.83;77.83
75130;HTU21D;63703;44.716;37.846;2022-10-26T03:23:58;14.82;77.79
75130;HTU21D;63703;44.716;37.846;2022-10-26T03:26:24;14.80;77.80
75130;HTU21D;63703;44.716;37.846;2022-10-26T03:28:50;14.82;77.90
75130;HTU21D;63703;44.716;37.846;2022-10-26T03:31:16;14.85;77.95
75130;HTU21D;63703;44.716;37.846;2022-10-26T03:33:46;14.86;77.92
75130;HTU21D;63703;44.716;37.846;2022-10-26T03:36:12;14.89;77.97
75130;HTU21D;63703;44.716;37.846;2022-10-26T03:38:38;14.93;78.00
75130;HTU21D;63703;44.716;37.846;2022-10-26T03:41:03;14.95;77.98
75130;HTU21D;63703;44.716;37.846;2022-10-26T03:43:29;15.01;78.11
75130;HTU21D;63703;44.716;37.846;2022-10-26T03:45:55;15.03;78.12
75130;HTU21D;63703;44.716;37.846;2022-10-26T03:48:21;15.10;78.21
75130;HTU21D;63703;44.716;37.846;2022-10-26T03:50:47;15.13;78.22
75130;HTU21D;63703;44.716;37.846;2022-10-26T03:53:13;15.16;78.18
75130;HTU21D;63703;44.716;37.846;2022-10-26T03:55:42;15.14;78.12
75130;HTU21D;63703;44.716;37.846;2022-10-26T03:58:08;15.17;78.17
75130;HTU21D;63703;44.716;37.846;2022-10-26T04:00:34;15.18;78.25
75130;HTU21D;63703;44.716;37.846;2022-10-26T04:03:00;15.19;78.23
75130;HTU21D;63703;44.716;37.846;2022-10-26T04:05:27;15.19;78.15
75130;HTU21D;63703;44.716;37.846;2022-10-26T04:07:57;15.18;78.08
75130;HTU21D;63703;44.716;37.846;2022-10-26T04:10:24;15.15;78.05
75130;HTU21D;63703;44.716;37.846;2022-10-26T04:12:51;15.13;78.01
75130;HTU21D;63703;44.716;37.846;2022-10-26T04:15:18;15.12;78.02
75130;HTU21D;63703;44.716;37.846;2022-10-26T04:17:44;15.12;77.97
75130;HTU21D;63703;44.716;37.846;2022-10-26T04:20:10;15.12;77.92
75130;HTU21D;63703;44.716;37.846;2022-10-26T04:22:37;15.14;77.90
75130;HTU21D;63703;44.716;37.846;2022-10-26T04:25:04;15.18;77.88
75130;HTU21D;63703;44.716;37.846;2022-10-26T04:27:30;15.24;77.84
75130;HTU21D;63703;44.716;37.846;2022-10-26T04:29:56;15.27;77.76
75130;HTU21D;63703;44.716;37.846;2022-10-26T04:32:22;15.34;77.69
75130;HTU21D;63703;44.716;37.846;2022-10-26T04:34:48;15.41;77.63
75130;HTU21D;63703;44.716;37.846;2022-10-26T04:37:14;15.49;77.59
75130;HTU21D;63703;44.716;37.846;2022-10-26T04:39:40;15.57;77.56
75130;HTU21D;63703;44.716;37.846;2022-10-26T04:42:06;15.63;77.51
75130;HTU21D;63703;44.716;37.846;2022-10-26T04:44:31;15.69;77.58
75130;HTU21D;63703;44.716;37.846;2022-10-26T04:46:57;15.71;77.60
75130;HTU21D;63703;44.716;37.846;2022-10-26T04:49:23;15.75;77.57
75130;HTU21D;63703;44.716;37.846;2022-10-26T04:51:49;15.78;77.51
75130;HTU21D;63703;44.716;37.846;2022-10-26T04:54:15;15.82;77.47
75130;HTU21D;63703;44.716;37.846;2022-10-26T04:56:41;15.86;77.37
75130;HTU21D;63703;44.716;37.846;2022-10-26T04:59:07;15.88;77.30
75130;HTU21D;63703;44.716;37.846;2022-10-26T05:01:33;15.92;77.22
75130;HTU21D;63703;44.716;37.846;2022-10-26T05:03:59;15.97;77.18
75130;HTU21D;63703;44.716;37.846;2022-10-26T05:06:24;15.98;77.15
75130;HTU21D;63703;44.716;37.846;2022-10-26T05:08:50;16.02;77.07
75130;HTU21D;63703;44.716;37.846;2022-10-26T05:11:16;16.04;76.99
75130;HTU21D;63703;44.716;37.846;2022-10-26T05:13:42;16.07;76.92
75130;HTU21D;63703;44.716;37.846;2022-10-26T05:16:08;16.10;76.86
75130;HTU21D;63703;44.716;37.846;2022-10-26T05:18:34;16.11;76.83
75130;HTU21D;63703;44.716;37.846;2022-10-26T05:21:00;16.13;76.79
75130;HTU21D;63703;44.716;37.846;2022-10-26T05:23:26;16.14;76.73
75130;HTU21D;63703;44.716;37.846;2022-10-26T05:25:51;16.19;76.63
75130;HTU21D;63703;44.716;37.846;2022-10-26T05:28:19;16.20;76.58
75130;HTU21D;63703;44.716;37.846;2022-10-26T05:30:45;16.22;76.56
75130;HTU21D;63703;44.716;37.846;2022-10-26T05:33:13;16.26;76.51
75130;HTU21D;63703;44.716;37.846;2022-10-26T05:35:39;16.31;76.39
75130;HTU21D;63703;44.716;37.846;2022-10-26T05:38:06;16.35;76.28
75130;HTU21D;63703;44.716;37.846;2022-10-26T05:40:33;16.37;76.18
75130;HTU21D;63703;44.716;37.846;2022-10-26T05:42:59;16.39;76.02
75130;HTU21D;63703;44.716;37.846;2022-10-26T05:45:26;16.41;75.94
75130;HTU21D;63703;44.716;37.846;2022-10-26T05:47:52;16.42;75.95
75130;HTU21D;63703;44.716;37.846;2022-10-26T05:50:18;16.47;75.83
75130;HTU21D;63703;44.716;37.846;2022-10-26T05:52:45;16.55;75.72
75130;HTU21D;63703;44.716;37.846;2022-10-26T05:55:14;16.61;75.58
75130;HTU21D;63703;44.716;37.846;2022-10-26T05:57:41;16.66;75.48
75130;HTU21D;63703;44.716;37.846;2022-10-26T06:00:16;16.74;75.26
75130;HTU21D;63703;44.716;37.846;2022-10-26T06:05:25;16.84;74.99
75130;HTU21D;63703;44.716;37.846;2022-10-26T06:07:52;16.92;74.70
75130;HTU21D;63703;44.716;37.846;2022-10-26T06:10:18;16.99;74.55
75130;HTU21D;63703;44.716;37.846;2022-10-26T06:12:44;17.05;74.52
75130;HTU21D;63703;44.716;37.846;2022-10-26T06:15:20;17.14;74.24
75130;HTU21D;63703;44.716;37.846;2022-10-26T06:18:12;17.15;73.91
75130;HTU21D;63703;44.716;37.846;2022-10-26T06:21:13;17.10;74.17
75130;HTU21D;63703;44.716;37.846;2022-10-26T06:24:03;17.07;74.31
75130;HTU21D;63703;44.716;37.846;2022-10-26T06:32:16;17.04;74.52
75130;HTU21D;63703;44.716;37.846;2022-10-26T06:34:44;17.03;74.71
75130;HTU21D;63703;44.716;37.846;2022-10-26T06:37:12;17.05;74.91
75130;HTU21D;63703;44.716;37.846;2022-10-26T06:39:41;17.09;75.19
75130;HTU21D;63703;44.716;37.846;2022-10-26T06:42:09;17.11;75.47
75130;HTU21D;63703;44.716;37.846;2022-10-26T06:44:35;17.13;75.47
75130;HTU21D;63703;44.716;37.846;2022-10-26T06:47:36;17.22;74.96
75130;HTU21D;63703;44.716;37.846;2022-10-26T06:50:27;17.28;74.29
75130;HTU21D;63703;44.716;37.846;2022-10-26T06:55:49;17.44;71.77
75130;HTU21D;63703;44.716;37.846;2022-10-26T06:58:19;17.49;70.73
75130;HTU21D;63703;44.716;37.846;2022-10-26T07:00:51;17.53;70.48
75130;HTU21D;63703;44.716;37.846;2022-10-26T07:03:18;17.58;70.26
75130;HTU21D;63703;44.716;37.846;2022-10-26T07:05:44;17.65;70.15
75130;HTU21D;63703;44.716;37.846;2022-10-26T07:08:11;17.72;69.85
75130;HTU21D;63703;44.716;37.846;2022-10-26T07:10:37;17.77;69.68
75130;HTU21D;63703;44.716;37.846;2022-10-26T07:13:05;17.80;68.78
75130;HTU21D;63703;44.716;37.846;2022-10-26T07:15:34;17.82;68.68
75130;HTU21D;63703;44.716;37.846;2022-10-26T07:18:02;17.85;68.72
75130;HTU21D;63703;44.716;37.846;2022-10-26T07:20:31;17.92;68.80
75130;HTU21D;63703;44.716;37.846;2022-10-26T07:22:57;17.98;68.85
75130;HTU21D;63703;44.716;37.846;2022-10-26T07:25:24;18.03;68.32
75130;HTU21D;63703;44.716;37.846;2022-10-26T07:27:50;18.06;68.02
75130;HTU21D;63703;44.716;37.846;2022-10-26T07:30:17;18.11;67.67
75130;HTU21D;63703;44.716;37.846;2022-10-26T07:32:43;18.14;67.90
75130;HTU21D;63703;44.716;37.846;2022-10-26T07:35:09;18.21;67.74
75130;HTU21D;63703;44.716;37.846;2022-10-26T07:37:35;18.21;68.01
75130;HTU21D;63703;44.716;37.846;2022-10-26T07:40:02;18.25;68.13
75130;HTU21D;63703;44.716;37.846;2022-10-26T07:42:29;18.26;67.72
75130;HTU21D;63703;44.716;37.846;2022-10-26T07:44:55;18.26;67.98
75130;HTU21D;63703;44.716;37.846;2022-10-26T07:47:21;18.29;68.14
75130;HTU21D;63703;44.716;37.846;2022-10-26T07:49:46;18.35;68.17
75130;HTU21D;63703;44.716;37.846;2022-10-26T07:52:12;18.41;67.94
75130;HTU21D;63703;44.716;37.846;2022-10-26T07:54:38;18.48;67.54
75130;HTU21D;63703;44.716;37.846;2022-10-26T07:57:04;18.51;67.22
75130;HTU21D;63703;44.716;37.846;2022-10-26T07:59:30;18.53;67.40
75130;HTU21D;63703;44.716;37.846;2022-10-26T08:01:56;18.59;67.44
75130;HTU21D;63703;44.716;37.846;2022-10-26T08:04:22;18.69;67.49
75130;HTU21D;63703;44.716;37.846;2022-10-26T08:06:48;18.78;67.57
75130;HTU21D;63703;44.716;37.846;2022-10-26T08:09:13;18.79;66.88
75130;HTU21D;63703;44.716;37.846;2022-10-26T08:11:39;18.77;67.20
75130;HTU21D;63703;44.716;37.846;2022-10-26T08:14:05;18.78;67.03
75130;HTU21D;63703;44.716;37.846;2022-10-26T08:16:31;18.79;67.10
75130;HTU21D;63703;44.716;37.846;2022-10-26T08:18:59;18.83;66.77
75130;HTU21D;63703;44.716;37.846;2022-10-26T08:21:25;18.91;65.71
75130;HTU21D;63703;44.716;37.846;2022-10-26T08:23:51;18.87;65.83
75130;HTU21D;63703;44.716;37.846;2022-10-26T08:26:16;18.87;66.41
75130;HTU21D;63703;44.716;37.846;2022-10-26T08:28:43;18.86;66.37
75130;HTU21D;63703;44.716;37.846;2022-10-26T08:31:08;18.79;66.38
75130;HTU21D;63703;44.716;37.846;2022-10-26T08:33:34;18.72;66.18
75130;HTU21D;63703;44.716;37.846;2022-10-26T08:36:03;18.68;65.88
75130;HTU21D;63703;44.716;37.846;2022-10-26T08:38:29;18.63;66.16
75130;HTU21D;63703;44.716;37.846;2022-10-26T08:40:56;18.55;66.59
75130;HTU21D;63703;44.716;37.846;2022-10-26T08:43:29;18.53;66.91
75130;HTU21D;63703;44.716;37.846;2022-10-26T08:46:14;18.49;67.46
75130;HTU21D;63703;44.716;37.846;2022-10-26T08:48:47;18.46;66.80
75130;HTU21D;63703;44.716;37.846;2022-10-26T08:51:18;18.40;67.04
75130;HTU21D;63703;44.716;37.846;2022-10-26T08:56:41;18.34;67.16
75130;HTU21D;63703;44.716;37.846;2022-10-26T09:01:53;18.30;66.88
75130;HTU21D;63703;44.716;37.846;2022-10-26T09:04:29;18.29;66.85
75130;HTU21D;63703;44.716;37.846;2022-10-26T09:07:01;18.35;66.15
75130;HTU21D;63703;44.716;37.846;2022-10-26T09:10:03;18.26;66.77
75130;HTU21D;63703;44.716;37.846;2022-10-26T09:15:24;18.18;67.04
75130;HTU21D;63703;44.716;37.846;2022-10-26T09:20:42;18.24;67.62
75130;HTU21D;63703;44.716;37.846;2022-10-26T09:23:20;18.24;67.63
75130;HTU21D;63703;44.716;37.846;2022-10-26T09:25:57;18.26;67.20
75130;HTU21D;63703;44.716;37.846;2022-10-26T09:28:23;18.28;67.23
75130;HTU21D;63703;44.716;37.846;2022-10-26T09:30:51;18.28;67.04
75130;HTU21D;63703;44.716;37.846;2022-10-26T09:33:23;18.32;66.85
75130;HTU21D;63703;44.716;37.846;2022-10-26T09:35:50;18.38;66.78
75130;HTU21D;63703;44.716;37.846;2022-10-26T09:41:04;18.48;66.01
75130;HTU21D;63703;44.716;37.846;2022-10-26T09:43:57;18.42;66.53
75130;HTU21D;63703;44.716;37.846;2022-10-26T09:46:31;18.40;66.93
75130;HTU21D;63703;44.716;37.846;2022-10-26T09:49:05;18.42;66.47
75130;HTU21D;63703;44.716;37.846;2022-10-26T09:51:36;18.41;66.56
75130;HTU21D;63703;44.716;37.846;2022-10-26T09:54:08;18.41;66.31
75130;HTU21D;63703;44.716;37.846;2022-10-26T09:56:38;18.40;66.29
75130;HTU21D;63703;44.716;37.846;2022-10-26T09:59:05;18.38;66.31
75130;HTU21D;63703;44.716;37.846;2022-10-26T10:01:34;18.37;65.88
75130;HTU21D;63703;44.716;37.846;2022-10-26T10:06:35;18.34;66.19
75130;HTU21D;63703;44.716;37.846;2022-10-26T10:09:09;18.35;66.37
75130;HTU21D;63703;44.716;37.846;2022-10-26T10:11:38;18.34;66.63
75130;HTU21D;63703;44.716;37.846;2022-10-26T10:14:12;18.37;66.78
75130;HTU21D;63703;44.716;37.846;2022-10-26T10:16:39;18.37;66.85
75130;HTU21D;63703;44.716;37.846;2022-10-26T10:19:21;18.38;66.56
75130;HTU21D;63703;44.716;37.846;2022-10-26T10:21:48;18.34;66.81
75130;HTU21D;63703;44.716;37.846;2022-10-26T10:24:29;18.33;67.63
75130;HTU21D;63703;44.716;37.846;2022-10-26T10:26:57;18.28;67.88
75130;HTU21D;63703;44.716;37.846;2022-10-26T10:29:29;18.30;67.88
75130;HTU21D;63703;44.716;37.846;2022-10-26T10:32:01;18.26;68.47
75130;HTU21D;63703;44.716;37.846;2022-10-26T10:34:31;18.27;68.46
75130;HTU21D;63703;44.716;37.846;2022-10-26T10:36:58;18.27;68.42
75130;HTU21D;63703;44.716;37.846;2022-10-26T10:39:35;18.27;68.16
75130;HTU21D;63703;44.716;37.846;2022-10-26T10:42:04;18.25;68.29
75130;HTU21D;63703;44.716;37.846;2022-10-26T10:44:32;18.27;68.14
75130;HTU21D;63703;44.716;37.846;2022-10-26T10:47:06;18.35;68.08
75130;HTU21D;63703;44.716;37.846;2022-10-26T10:49:32;18.36;67.91
75130;HTU21D;63703;44.716;37.846;2022-10-26T10:51:59;18.37;68.10
75130;HTU21D;63703;44.716;37.846;2022-10-26T10:54:31;18.42;68.29
75130;HTU21D;63703;44.716;37.846;2022-10-26T10:57:24;18.56;67.75
75130;HTU21D;63703;44.716;37.846;2022-10-26T11:00:04;18.69;67.45
75130;HTU21D;63703;44.716;37.846;2022-10-26T11:08:12;19.45;66.11
75130;HTU21D;63703;44.716;37.846;2022-10-26T11:13:48;19.85;65.09
75130;HTU21D;63703;44.716;37.846;2022-10-26T11:16:22;19.69;65.27
75130;HTU21D;63703;44.716;37.846;2022-10-26T11:18:58;19.56;65.37
75130;HTU21D;63703;44.716;37.846;2022-10-26T11:21:29;19.51;65.37
75130;HTU21D;63703;44.716;37.846;2022-10-26T11:24:16;19.48;64.78
75130;HTU21D;63703;44.716;37.846;2022-10-26T11:27:09;19.35;65.21
75130;HTU21D;63703;44.716;37.846;2022-10-26T11:29:39;19.17;65.89
75130;HTU21D;63703;44.716;37.846;2022-10-26T11:32:27;19.05;66.55
75130;HTU21D;63703;44.716;37.846;2022-10-26T11:35:18;18.93;66.54
75130;HTU21D;63703;44.716;37.846;2022-10-26T11:43:40;18.61;67.71
75130;HTU21D;63703;44.716;37.846;2022-10-26T11:48:54;18.44;68.16
75130;HTU21D;63703;44.716;37.846;2022-10-26T11:54:18;18.35;69.00
75130;HTU21D;63703;44.716;37.846;2022-10-26T11:56:47;18.33;69.19
75130;HTU21D;63703;44.716;37.846;2022-10-26T11:59:23;18.30;69.86
75130;HTU21D;63703;44.716;37.846;2022-10-26T12:01:52;18.28;69.60
75130;HTU21D;63703;44.716;37.846;2022-10-26T12:04:22;18.25;69.81
75130;HTU21D;63703;44.716;37.846;2022-10-26T12:06:50;18.26;69.85
75130;HTU21D;63703;44.716;37.846;2022-10-26T12:09:22;18.27;69.83
75130;HTU21D;63703;44.716;37.846;2022-10-26T12:14:59;18.26;70.13
75130;HTU21D;63703;44.716;37.846;2022-10-26T12:17:45;18.24;70.38
75130;HTU21D;63703;44.716;37.846;2022-10-26T12:23:03;18.21;70.71
75130;HTU21D;63703;44.716;37.846;2022-10-26T12:25:30;18.18;70.57
75130;HTU21D;63703;44.716;37.846;2022-10-26T12:27:56;18.13;70.44
75130;HTU21D;63703;44.716;37.846;2022-10-26T12:30:34;18.14;69.78
75130;HTU21D;63703;44.716;37.846;2022-10-26T12:33:03;18.14;69.65
75130;HTU21D;63703;44.716;37.846;2022-10-26T12:35:49;18.11;69.80
75130;HTU21D;63703;44.716;37.846;2022-10-26T12:43:36;18.07;70.15
75130;HTU21D;63703;44.716;37.846;2022-10-26T12:48:52;18.03;69.94
75130;HTU21D;63703;44.716;37.846;2022-10-26T12:56:55;17.95;71.68
75130;HTU21D;63703;44.716;37.846;2022-10-26T13:00:11;17.94;72.04
75130;HTU21D;63703;44.716;37.846;2022-10-26T13:08:13;17.87;72.51
75130;HTU21D;63703;44.716;37.846;2022-10-26T13:10:58;17.85;72.42
75130;HTU21D;63703;44.716;37.846;2022-10-26T13:13:25;17.85;72.09
75130;HTU21D;63703;44.716;37.846;2022-10-26T13:15:57;17.87;71.93
75130;HTU21D;63703;44.716;37.846;2022-10-26T13:18:24;17.88;71.90
75130;HTU21D;63703;44.716;37.846;2022-10-26T13:21:10;17.87;72.70
75130;HTU21D;63703;44.716;37.846;2022-10-26T13:24:03;17.84;72.61
75130;HTU21D;63703;44.716;37.846;2022-10-26T13:26:32;17.81;72.80
75130;HTU21D;63703;44.716;37.846;2022-10-26T13:29:17;17.79;72.92
75130;HTU21D;63703;44.716;37.846;2022-10-26T13:39:39;17.70;73.48
75130;HTU21D;63703;44.716;37.846;2022-10-26T13:42:15;17.68;73.58
75130;HTU21D;63703;44.716;37.846;2022-10-26T13:45:00;17.67;73.69
75130;HTU21D;63703;44.716;37.846;2022-10-26T13:50:13;17.62;73.46
75130;HTU21D;63703;44.716;37.846;2022-10-26T13:52:43;17.61;73.73
75130;HTU21D;63703;44.716;37.846;2022-10-26T13:55:22;17.61;74.06
75130;HTU21D;63703;44.716;37.846;2022-10-26T14:00:36;17.59;74.06
75130;HTU21D;63703;44.716;37.846;2022-10-26T14:03:12;17.61;74.09
75130;HTU21D;63703;44.716;37.846;2022-10-26T14:05:42;17.61;73.93
75130;HTU21D;63703;44.716;37.846;2022-10-26T14:08:15;17.55;74.15
75130;HTU21D;63703;44.716;37.846;2022-10-26T14:10:47;17.53;74.60
75130;HTU21D;63703;44.716;37.846;2022-10-26T14:13:20;17.52;75.11
75130;HTU21D;63703;44.716;37.846;2022-10-26T14:15:47;17.54;75.03
75130;HTU21D;63703;44.716;37.846;2022-10-26T14:18:19;17.49;75.44
75130;HTU21D;63703;44.716;37.846;2022-10-26T14:20:57;17.40;75.76
75130;HTU21D;63703;44.716;37.846;2022-10-26T14:23:45;17.32;76.25
75130;HTU21D;63703;44.716;37.846;2022-10-26T14:26:26;17.26;76.86
75130;HTU21D;63703;44.716;37.846;2022-10-26T14:28:55;17.18;76.60
75130;HTU21D;63703;44.716;37.846;2022-10-26T14:31:24;17.16;77.11
75130;HTU21D;63703;44.716;37.846;2022-10-26T14:33:52;17.14;77.16
75130;HTU21D;63703;44.716;37.846;2022-10-26T14:36:20;17.11;77.33
75130;HTU21D;63703;44.716;37.846;2022-10-26T14:38:53;17.14;77.61
75130;HTU21D;63703;44.716;37.846;2022-10-26T14:41:20;17.15;77.50
75130;HTU21D;63703;44.716;37.846;2022-10-26T14:43:47;17.15;77.62
75130;HTU21D;63703;44.716;37.846;2022-10-26T14:46:17;17.19;77.72
75130;HTU21D;63703;44.716;37.846;2022-10-26T14:48:58;17.21;78.32
75130;HTU21D;63703;44.716;37.846;2022-10-26T14:51:37;17.21;77.52
75130;HTU21D;63703;44.716;37.846;2022-10-26T14:54:03;17.21;77.47
75130;HTU21D;63703;44.716;37.846;2022-10-26T14:56:38;17.22;78.05
75130;HTU21D;63703;44.716;37.846;2022-10-26T15:02:11;17.25;77.68
75130;HTU21D;63703;44.716;37.846;2022-10-26T15:04:41;17.22;77.55
75130;HTU21D;63703;44.716;37.846;2022-10-26T15:07:20;17.22;77.44
75130;HTU21D;63703;44.716;37.846;2022-10-26T15:09:48;17.24;77.26
75130;HTU21D;63703;44.716;37.846;2022-10-26T15:14:52;17.30;77.02
75130;HTU21D;63703;44.716;37.846;2022-10-26T15:17:21;17.31;77.01
75130;HTU21D;63703;44.716;37.846;2022-10-26T15:19:49;17.31;77.26
75130;HTU21D;63703;44.716;37.846;2022-10-26T15:22:21;17.34;77.91
75130;HTU21D;63703;44.716;37.846;2022-10-26T15:24:52;17.35;77.98
75130;HTU21D;63703;44.716;37.846;2022-10-26T15:27:18;17.36;77.79
75130;HTU21D;63703;44.716;37.846;2022-10-26T15:29:47;17.35;77.62
75130;HTU21D;63703;44.716;37.846;2022-10-26T15:32:30;17.39;77.34
75130;HTU21D;63703;44.716;37.846;2022-10-26T15:35:21;17.38;77.40
75130;HTU21D;63703;44.716;37.846;2022-10-26T15:37:49;17.38;77.17
75130;HTU21D;63703;44.716;37.846;2022-10-26T15:40:16;17.34;77.29
75130;HTU21D;63703;44.716;37.846;2022-10-26T15:42:42;17.34;77.60
75130;HTU21D;63703;44.716;37.846;2022-10-26T15:45:20;17.32;77.79
75130;HTU21D;63703;44.716;37.846;2022-10-26T15:47:47;17.30;77.56
75130;HTU21D;63703;44.716;37.846;2022-10-26T15:50:20;17.25;77.78
75130;HTU21D;63703;44.716;37.846;2022-10-26T15:52:46;17.22;78.01
75130;HTU21D;63703;44.716;37.846;2022-10-26T15:55:12;17.15;78.28
75130;HTU21D;63703;44.716;37.846;2022-10-26T15:57:38;17.07;78.40
75130;HTU21D;63703;44.716;37.846;2022-10-26T16:00:06;17.05;78.34
75130;HTU21D;63703;44.716;37.846;2022-10-26T16:02:36;17.02;78.26
75130;HTU21D;63703;44.716;37.846;2022-10-26T16:05:03;17.00;78.18
75130;HTU21D;63703;44.716;37.846;2022-10-26T16:07:29;16.99;78.33
75130;HTU21D;63703;44.716;37.846;2022-10-26T16:09:55;16.90;78.65
75130;HTU21D;63703;44.716;37.846;2022-10-26T16:12:21;16.82;78.91
75130;HTU21D;63703;44.716;37.846;2022-10-26T16:14:47;16.75;79.30
75130;HTU21D;63703;44.716;37.846;2022-10-26T16:17:13;16.71;79.87
75130;HTU21D;63703;44.716;37.846;2022-10-26T16:19:38;16.65;80.29
75130;HTU21D;63703;44.716;37.846;2022-10-26T16:22:04;16.60;80.73
75130;HTU21D;63703;44.716;37.846;2022-10-26T16:24:30;16.56;80.93
75130;HTU21D;63703;44.716;37.846;2022-10-26T16:26:56;16.54;81.12
75130;HTU21D;63703;44.716;37.846;2022-10-26T16:29:23;16.51;81.17
75130;HTU21D;63703;44.716;37.846;2022-10-26T16:31:49;16.49;81.35
75130;HTU21D;63703;44.716;37.846;2022-10-26T16:34:15;16.47;81.45
75130;HTU21D;63703;44.716;37.846;2022-10-26T16:36:40;16.45;81.59
75130;HTU21D;63703;44.716;37.846;2022-10-26T16:39:10;16.40;81.78
75130;HTU21D;63703;44.716;37.846;2022-10-26T16:41:36;16.36;81.85
75130;HTU21D;63703;44.716;37.846;2022-10-26T16:44:02;16.30;81.97
75130;HTU21D;63703;44.716;37.846;2022-10-26T16:46:28;16.26;82.05
75130;HTU21D;63703;44.716;37.846;2022-10-26T16:48:54;16.24;82.25
75130;HTU21D;63703;44.716;37.846;2022-10-26T16:51:22;16.18;82.45
75130;HTU21D;63703;44.716;37.846;2022-10-26T16:53:50;16.15;82.51
75130;HTU21D;63703;44.716;37.846;2022-10-26T16:56:21;16.14;82.52
75130;HTU21D;63703;44.716;37.846;2022-10-26T16:58:48;16.12;82.46
75130;HTU21D;63703;44.716;37.846;2022-10-26T17:01:16;16.11;82.49
75130;HTU21D;63703;44.716;37.846;2022-10-26T17:03:49;16.12;82.73
75130;HTU21D;63703;44.716;37.846;2022-10-26T17:06:17;16.14;83.23
75130;HTU21D;63703;44.716;37.846;2022-10-26T17:08:43;16.17;83.38
75130;HTU21D;63703;44.716;37.846;2022-10-26T17:11:14;16.17;83.69
75130;HTU21D;63703;44.716;37.846;2022-10-26T17:13:41;16.14;83.53
75130;HTU21D;63703;44.716;37.846;2022-10-26T17:16:12;16.08;82.88
75130;HTU21D;63703;44.716;37.846;2022-10-26T17:18:39;16.02;81.68
75130;HTU21D;63703;44.716;37.846;2022-10-26T17:21:07;15.95;81.36